Time;durP1;ratioP1;P1;durP2;ratioP2;P2;SDS_P1;SDS_P2;PMS_P1;PMS_P2;Temp;Humidity;BMP_temperature;BMP_pressure;BME280_temperature;BME280_humidity;BME280_pressure;Samples;Min_cycle;Max_cycle;Signal;HPM_P1;HPM_P2
2021/03/11 00:00:12;;;;;;;23.65;14.88;;;;;;;;;;4988706;28;20033;-77
2021/03/11 00:02:38;;;;;;;19.92;11.27;;;;;;;;;;4979626;28;20018;-75
2021/03/11 00:05:06;;;;;;;22.60;12.60;;;;;;;;;;4976679;28;20610;-73
2021/03/11 00:07:32;;;;;;;22.15;11.75;;;;;;;;;;4977714;28;20053;-75
2021/03/11 00:09:58;;;;;;;23.52;15.05;;;;;;;;;;4984151;28;20085;-74
2021/03/11 00:12:24;;;;;;;22.75;13.93;;;;;;;;;;4986923;28;20045;-72
2021/03/11 00:14:50;;;;;;;21.00;12.50;;;;;;;;;;4988628;28;20027;-74
2021/03/11 00:17:16;;;;;;;17.90;10.02;;;;;;;;;;4987763;28;20115;-73
2021/03/11 00:19:43;;;;;;;29.20;16.10;;;;;;;;;;4989945;28;20022;-72
2021/03/11 00:22:10;;;;;;;20.90;10.68;;;;;;;;;;4982138;28;20018;-75
2021/03/11 00:24:36;;;;;;;19.58;9.95;;;;;;;;;;4989522;28;20038;-76
2021/03/11 00:27:02;;;;;;;23.10;12.57;;;;;;;;;;4979284;28;20031;-75
2021/03/11 00:29:28;;;;;;;24.75;13.07;;;;;;;;;;4987128;28;20022;-72
2021/03/11 00:31:55;;;;;;;20.08;12.88;;;;;;;;;;4989413;28;20030;-72
2021/03/11 00:34:21;;;;;;;23.40;13.25;;;;;;;;;;4988345;28;20498;-71
2021/03/11 00:36:47;;;;;;;21.25;12.65;;;;;;;;;;4987670;28;20027;-75
2021/03/11 00:39:14;;;;;;;22.00;12.15;;;;;;;;;;4984708;28;20030;-73
2021/03/11 00:41:40;;;;;;;18.13;9.98;;;;;;;;;;4989510;28;20458;-75
2021/03/11 00:44:06;;;;;;;18.65;12.13;;;;;;;;;;4982646;28;20031;-72
2021/03/11 00:46:32;;;;;;;21.85;11.13;;;;;;;;;;4982122;28;20026;-71
2021/03/11 00:48:58;;;;;;;19.48;10.93;;;;;;;;;;4988996;28;20062;-71
2021/03/11 00:51:24;;;;;;;20.70;10.13;;;;;;;;;;4983033;28;20109;-74
2021/03/11 00:53:50;;;;;;;18.70;11.65;;;;;;;;;;4990235;28;20085;-74
2021/03/11 00:56:16;;;;;;;20.98;11.50;;;;;;;;;;4984059;28;20481;-76
2021/03/11 00:58:42;;;;;;;17.73;11.68;;;;;;;;;;4991779;28;20094;-74
2021/03/11 01:01:08;;;;;;;20.40;12.13;;;;;;;;;;4988979;28;20118;-73
2021/03/11 01:03:35;;;;;;;24.48;15.30;;;;;;;;;;4994079;28;20092;-78
2021/03/11 01:06:01;;;;;;;18.98;10.15;;;;;;;;;;4985060;28;20125;-78
2021/03/11 01:08:27;;;;;;;20.02;11.25;;;;;;;;;;4986652;28;20026;-74
2021/03/11 01:10:53;;;;;;;17.10;10.20;;;;;;;;;;4993157;28;20037;-73
2021/03/11 01:13:19;;;;;;;26.63;11.77;;;;;;;;;;4993754;28;20039;-73
2021/03/11 01:15:45;;;;;;;25.13;13.27;;;;;;;;;;4991888;28;20058;-75
2021/03/11 01:18:13;;;;;;;21.35;12.05;;;;;;;;;;4993993;28;20019;-75
2021/03/11 01:20:40;;;;;;;24.70;14.57;;;;;;;;;;4986847;28;20022;-70
2021/03/11 01:23:06;;;;;;;18.83;9.70;;;;;;;;;;4987392;28;20523;-75
2021/03/11 01:25:32;;;;;;;18.30;9.93;;;;;;;;;;4986521;28;20042;-75
2021/03/11 01:27:58;;;;;;;24.27;12.70;;;;;;;;;;4985969;28;20141;-76
2021/03/11 01:30:24;;;;;;;15.73;9.38;;;;;;;;;;4983588;28;20027;-71
2021/03/11 01:32:50;;;;;;;20.00;10.35;;;;;;;;;;4986466;28;20512;-73
2021/03/11 01:35:16;;;;;;;19.77;11.43;;;;;;;;;;4986167;28;20100;-71
2021/03/11 01:37:42;;;;;;;20.70;11.65;;;;;;;;;;4992567;28;20042;-67
2021/03/11 01:40:09;;;;;;;19.85;10.40;;;;;;;;;;4992157;28;20026;-67
2021/03/11 01:42:36;;;;;;;16.88;7.60;;;;;;;;;;4992261;28;20031;-72
2021/03/11 01:45:03;;;;;;;18.95;9.98;;;;;;;;;;4992615;28;20054;-71
2021/03/11 01:47:29;;;;;;;14.82;7.65;;;;;;;;;;4991450;28;20027;-72
2021/03/11 01:49:55;;;;;;;12.80;8.25;;;;;;;;;;4980071;28;20046;-72
2021/03/11 01:52:21;;;;;;;16.80;9.63;;;;;;;;;;4984954;28;20027;-77
2021/03/11 01:54:47;;;;;;;20.63;11.30;;;;;;;;;;4983423;28;20035;-72
2021/03/11 01:57:13;;;;;;;14.25;9.18;;;;;;;;;;4985081;28;20077;-71
2021/03/11 01:59:39;;;;;;;15.27;9.25;;;;;;;;;;4981554;28;20085;-68
2021/03/11 02:02:06;;;;;;;20.92;10.20;;;;;;;;;;4988852;28;20026;-72
2021/03/11 02:04:32;;;;;;;14.23;8.88;;;;;;;;;;4981467;28;20097;-74
2021/03/11 02:06:58;;;;;;;17.70;9.77;;;;;;;;;;4991091;28;20534;-77
2021/03/11 02:09:24;;;;;;;15.60;9.88;;;;;;;;;;4991468;28;20085;-76
2021/03/11 02:11:53;;;;;;;14.77;8.27;;;;;;;;;;4986994;28;20499;-73
2021/03/11 02:14:23;;;;;;;13.77;9.00;;;;;;;;;;4979671;28;20122;-71
2021/03/11 02:16:59;;;;;;;18.88;10.55;;;;;;;;;;4987174;28;20061;-73
2021/03/11 02:19:25;;;;;;;16.83;10.65;;;;;;;;;;4986920;28;20022;-74
2021/03/11 02:21:57;;;;;;;15.70;8.85;;;;;;;;;;4984105;28;20053;-71
2021/03/11 02:24:29;;;;;;;19.27;9.63;;;;;;;;;;4990377;28;20029;-74
2021/03/11 02:27:14;;;;;;;17.80;8.48;;;;;;;;;;4988360;28;20066;-73
2021/03/11 02:29:42;;;;;;;16.63;8.18;;;;;;;;;;4986306;28;20065;-71
2021/03/11 02:32:10;;;;;;;13.57;8.35;;;;;;;;;;4989049;28;20042;-72
2021/03/11 02:34:37;;;;;;;17.35;9.90;;;;;;;;;;4992579;28;20491;-72
2021/03/11 02:37:12;;;;;;;15.20;8.70;;;;;;;;;;4988329;28;20037;-77
2021/03/11 02:39:40;;;;;;;19.73;12.32;;;;;;;;;;4990820;28;20500;-77
2021/03/11 02:42:08;;;;;;;20.00;9.45;;;;;;;;;;4983428;28;20018;-75
2021/03/11 02:44:34;;;;;;;15.38;8.38;;;;;;;;;;4987797;28;20118;-72
2021/03/11 02:47:01;;;;;;;16.30;8.05;;;;;;;;;;4980665;28;20511;-73
2021/03/11 02:49:27;;;;;;;16.65;9.15;;;;;;;;;;4989386;28;20503;-76
2021/03/11 02:51:53;;;;;;;12.63;7.75;;;;;;;;;;4986267;28;20113;-71
2021/03/11 02:54:20;;;;;;;11.55;5.93;;;;;;;;;;4988610;28;20030;-72
2021/03/11 02:56:47;;;;;;;15.65;9.02;;;;;;;;;;4979307;28;20031;-75
2021/03/11 02:59:13;;;;;;;14.55;6.85;;;;;;;;;;4981731;28;20022;-70
2021/03/11 03:01:40;;;;;;;11.75;6.70;;;;;;;;;;4986387;28;20033;-70
2021/03/11 03:04:06;;;;;;;8.55;4.65;;;;;;;;;;4988967;28;20570;-72
2021/03/11 03:06:32;;;;;;;16.58;7.43;;;;;;;;;;4986155;28;20080;-71
2021/03/11 03:08:59;;;;;;;14.43;5.90;;;;;;;;;;4988823;28;20037;-72
2021/03/11 03:11:25;;;;;;;11.73;6.88;;;;;;;;;;4991646;28;20109;-76
2021/03/11 03:13:52;;;;;;;12.25;6.63;;;;;;;;;;4983071;28;20404;-68
2021/03/11 03:16:18;;;;;;;9.38;5.55;;;;;;;;;;4986466;28;20037;-71
2021/03/11 03:18:46;;;;;;;13.73;7.53;;;;;;;;;;4984542;28;20500;-74
2021/03/11 03:21:12;;;;;;;12.40;6.05;;;;;;;;;;4984250;28;20030;-74
2021/03/11 03:23:42;;;;;;;9.57;4.78;;;;;;;;;;4986453;28;20054;-77
2021/03/11 03:26:09;;;;;;;16.98;5.45;;;;;;;;;;4986577;28;20030;-71
2021/03/11 03:28:35;;;;;;;11.13;4.45;;;;;;;;;;4982326;28;20069;-73
2021/03/11 03:31:01;;;;;;;9.73;5.63;;;;;;;;;;4981988;28;20077;-68
2021/03/11 03:33:28;;;;;;;9.50;5.18;;;;;;;;;;4990102;28;20117;-70
2021/03/11 03:35:54;;;;;;;11.00;4.13;;;;;;;;;;4988048;28;20137;-68
2021/03/11 03:38:20;;;;;;;12.23;5.40;;;;;;;;;;4988809;28;20072;-68
2021/03/11 03:40:46;;;;;;;11.48;6.03;;;;;;;;;;4986637;28;20034;-67
2021/03/11 03:43:26;;;;;;;14.75;6.03;;;;;;;;;;4989455;28;20125;-69
2021/03/11 03:46:01;;;;;;;11.63;4.97;;;;;;;;;;4984441;28;20035;-66
2021/03/11 03:48:29;;;;;;;11.13;5.10;;;;;;;;;;4989590;28;20049;-68
2021/03/11 03:50:57;;;;;;;10.50;5.20;;;;;;;;;;4986221;28;20041;-67
2021/03/11 03:53:25;;;;;;;10.27;4.50;;;;;;;;;;4985486;28;20500;-72
2021/03/11 03:55:55;;;;;;;10.60;4.38;;;;;;;;;;4985981;28;20078;-68
2021/03/11 03:58:22;;;;;;;12.07;3.67;;;;;;;;;;4989113;28;20026;-72
2021/03/11 04:00:48;;;;;;;9.88;4.95;;;;;;;;;;4990032;28;20281;-67
2021/03/11 04:03:14;;;;;;;6.38;3.17;;;;;;;;;;4977820;28;20034;-70
2021/03/11 04:05:41;;;;;;;7.90;3.92;;;;;;;;;;4986074;28;20030;-75
2021/03/11 04:08:07;;;;;;;9.48;3.65;;;;;;;;;;4986359;28;20027;-71
2021/03/11 04:10:33;;;;;;;7.13;3.33;;;;;;;;;;4981686;28;20035;-64
2021/03/11 04:13:00;;;;;;;10.23;3.38;;;;;;;;;;4985156;28;20031;-74
2021/03/11 04:15:26;;;;;;;10.02;4.00;;;;;;;;;;4981006;28;20519;-72
2021/03/11 04:17:52;;;;;;;10.75;4.63;;;;;;;;;;4988632;28;20018;-70
2021/03/11 04:20:19;;;;;;;8.05;4.00;;;;;;;;;;4986514;28;20030;-70
2021/03/11 04:22:45;;;;;;;11.93;4.25;;;;;;;;;;4986059;28;20181;-67
2021/03/11 04:25:11;;;;;;;10.73;3.95;;;;;;;;;;4984357;28;20070;-71
2021/03/11 04:27:38;;;;;;;11.40;3.97;;;;;;;;;;4993499;28;20034;-68
2021/03/11 04:30:05;;;;;;;11.02;3.47;;;;;;;;;;4988496;28;20527;-71
2021/03/11 04:32:33;;;;;;;8.75;4.55;;;;;;;;;;4995198;28;20081;-71
2021/03/11 04:34:59;;;;;;;10.40;4.47;;;;;;;;;;4981629;28;20019;-71
2021/03/11 04:37:25;;;;;;;7.13;3.10;;;;;;;;;;4985293;28;20129;-70
2021/03/11 04:39:51;;;;;;;8.38;2.10;;;;;;;;;;4989370;28;20615;-63
2021/03/11 04:42:17;;;;;;;8.98;3.67;;;;;;;;;;4977122;28;20386;-71
2021/03/11 04:44:43;;;;;;;7.85;3.38;;;;;;;;;;4979250;28;20052;-71
2021/03/11 04:47:11;;;;;;;15.02;5.28;;;;;;;;;;4982327;28;20027;-74
2021/03/11 04:49:37;;;;;;;8.82;2.97;;;;;;;;;;4990639;28;20053;-72
2021/03/11 04:52:03;;;;;;;7.85;2.78;;;;;;;;;;4992492;28;20089;-71
2021/03/11 04:54:30;;;;;;;9.50;4.28;;;;;;;;;;4987914;28;20023;-74
2021/03/11 04:56:56;;;;;;;15.23;5.07;;;;;;;;;;4992684;28;20646;-73
2021/03/11 04:59:23;;;;;;;7.93;3.83;;;;;;;;;;4989849;28;20034;-70
2021/03/11 05:01:53;;;;;;;11.40;2.83;;;;;;;;;;4994132;28;20101;-70
2021/03/11 05:04:19;;;;;;;10.38;4.38;;;;;;;;;;4987384;28;20038;-71
2021/03/11 05:06:45;;;;;;;13.02;4.25;;;;;;;;;;4989485;28;20532;-75
2021/03/11 05:09:11;;;;;;;13.20;3.78;;;;;;;;;;4992628;28;20034;-70
2021/03/11 05:11:37;;;;;;;12.80;4.35;;;;;;;;;;4988209;28;20056;-72
2021/03/11 05:14:03;;;;;;;11.02;3.90;;;;;;;;;;4988056;28;20030;-72
2021/03/11 05:16:29;;;;;;;13.68;3.72;;;;;;;;;;4989522;28;20875;-72
2021/03/11 05:18:55;;;;;;;12.90;3.40;;;;;;;;;;4988532;28;20030;-73
2021/03/11 05:21:21;;;;;;;14.48;3.53;;;;;;;;;;4977409;28;20030;-74
2021/03/11 05:23:48;;;;;;;14.00;3.35;;;;;;;;;;4986762;28;20127;-70
2021/03/11 05:26:14;;;;;;;16.80;3.97;;;;;;;;;;4986437;28;20031;-71
2021/03/11 05:28:40;;;;;;;16.25;3.08;;;;;;;;;;4985000;28;20064;-71
2021/03/11 05:31:06;;;;;;;20.95;5.00;;;;;;;;;;4986295;28;20126;-67
2021/03/11 05:33:32;;;;;;;16.25;3.83;;;;;;;;;;4982648;28;20061;-71
2021/03/11 05:35:58;;;;;;;25.40;4.70;;;;;;;;;;4989403;28;20054;-67
2021/03/11 05:38:24;;;;;;;11.35;2.97;;;;;;;;;;4991303;28;20031;-69
2021/03/11 05:40:54;;;;;;;26.30;5.53;;;;;;;;;;4992895;28;20032;-68
2021/03/11 05:43:20;;;;;;;25.67;6.15;;;;;;;;;;4993004;28;20034;-71
2021/03/11 05:45:46;;;;;;;18.85;6.45;;;;;;;;;;4983296;28;20041;-73
2021/03/11 05:48:16;;;;;;;19.38;4.65;;;;;;;;;;4991479;28;20037;-75
2021/03/11 05:50:43;;;;;;;35.65;5.07;;;;;;;;;;4989000;28;20045;-69
2021/03/11 05:53:11;;;;;;;29.00;5.97;;;;;;;;;;4980145;28;20033;-69
2021/03/11 05:55:37;;;;;;;25.45;4.88;;;;;;;;;;4980389;28;20038;-67
2021/03/11 05:58:03;;;;;;;35.67;5.88;;;;;;;;;;4981530;28;20102;-68
2021/03/11 06:00:29;;;;;;;33.38;8.48;;;;;;;;;;4978019;28;20030;-69
2021/03/11 06:02:57;;;;;;;53.20;7.97;;;;;;;;;;4980257;28;20042;-66
2021/03/11 06:05:23;;;;;;;38.17;7.70;;;;;;;;;;4990590;28;20037;-70
2021/03/11 06:07:49;;;;;;;35.13;6.57;;;;;;;;;;4987201;28;20046;-72
2021/03/11 06:10:18;;;;;;;40.92;7.63;;;;;;;;;;4989341;28;20026;-74
2021/03/11 06:12:44;;;;;;;51.53;11.07;;;;;;;;;;4983088;28;20030;-67
2021/03/11 06:15:13;;;;;;;58.55;10.50;;;;;;;;;;4991459;28;20034;-71
2021/03/11 06:17:40;;;;;;;45.53;9.45;;;;;;;;;;4989849;28;20026;-69
2021/03/11 06:20:10;;;;;;;59.50;10.27;;;;;;;;;;4981985;28;20030;-76
2021/03/11 06:22:37;;;;;;;49.50;8.48;;;;;;;;;;4991955;28;20029;-73
2021/03/11 06:25:04;;;;;;;65.28;11.13;;;;;;;;;;4985617;28;20029;-66
2021/03/11 06:27:30;;;;;;;43.10;7.63;;;;;;;;;;4980952;28;20109;-69
2021/03/11 06:29:57;;;;;;;52.45;8.77;;;;;;;;;;4983989;28;20030;-73
2021/03/11 06:32:23;;;;;;;54.50;9.82;;;;;;;;;;4988572;28;20061;-68
2021/03/11 06:34:49;;;;;;;52.80;9.18;;;;;;;;;;4986154;28;20506;-75
2021/03/11 06:37:16;;;;;;;51.72;11.07;;;;;;;;;;4981985;28;20046;-67
2021/03/11 06:39:45;;;;;;;50.10;8.15;;;;;;;;;;4978424;28;20065;-79
2021/03/11 06:42:11;;;;;;;43.65;10.23;;;;;;;;;;4978700;28;20401;-68
2021/03/11 06:44:44;;;;;;;29.38;5.47;;;;;;;;;;4983248;28;20033;-69
2021/03/11 06:47:14;;;;;;;39.53;8.65;;;;;;;;;;4983361;28;20041;-69
2021/03/11 06:50:01;;;;;;;54.97;9.60;;;;;;;;;;4979090;28;20050;-77
2021/03/11 06:52:28;;;;;;;40.92;7.45;;;;;;;;;;4983488;28;20027;-76
2021/03/11 06:55:03;;;;;;;46.00;8.32;;;;;;;;;;4983259;28;20045;-72
2021/03/11 06:57:30;;;;;;;38.38;8.75;;;;;;;;;;4982899;28;20037;-77
2021/03/11 06:59:57;;;;;;;48.63;9.95;;;;;;;;;;4983543;28;20066;-68
2021/03/11 07:02:23;;;;;;;38.92;8.32;;;;;;;;;;4990614;28;20269;-71
2021/03/11 07:04:49;;;;;;;48.40;10.60;;;;;;;;;;4990560;28;20025;-65
2021/03/11 07:07:19;;;;;;;35.10;5.45;;;;;;;;;;4980707;28;20081;-70
2021/03/11 07:09:47;;;;;;;45.83;7.72;;;;;;;;;;4973656;28;20460;-70
2021/03/11 07:12:13;;;;;;;46.90;10.38;;;;;;;;;;4975686;28;20038;-74
2021/03/11 07:14:39;;;;;;;53.10;7.78;;;;;;;;;;4985345;28;20117;-70
2021/03/11 07:17:24;;;;;;;42.95;8.45;;;;;;;;;;4981306;28;20137;-70
2021/03/11 07:20:10;;;;;;;62.55;10.00;;;;;;;;;;4981476;28;20133;-72
2021/03/11 07:22:37;;;;;;;64.70;9.40;;;;;;;;;;4987938;28;20101;-72
2021/03/11 07:25:04;;;;;;;38.45;7.22;;;;;;;;;;4991367;28;20520;-67
2021/03/11 07:27:40;;;;;;;59.15;11.65;;;;;;;;;;4992129;28;20034;-72
2021/03/11 07:30:08;;;;;;;50.42;8.40;;;;;;;;;;4985571;28;20121;-68
2021/03/11 07:32:35;;;;;;;54.28;9.60;;;;;;;;;;4988156;28;20026;-66
2021/03/11 07:35:02;;;;;;;46.65;8.95;;;;;;;;;;4987272;28;20027;-66
2021/03/11 07:37:28;;;;;;;54.25;9.05;;;;;;;;;;4977442;28;20026;-69
2021/03/11 07:39:57;;;;;;;54.75;9.63;;;;;;;;;;4985450;28;20085;-70
2021/03/11 07:42:24;;;;;;;49.85;10.43;;;;;;;;;;4990949;28;20026;-63
2021/03/11 07:44:51;;;;;;;46.30;11.10;;;;;;;;;;5002738;28;20038;-75
2021/03/11 07:47:18;;;;;;;40.42;8.65;;;;;;;;;;4986694;28;20174;-73
2021/03/11 07:49:44;;;;;;;70.53;12.55;;;;;;;;;;4983682;28;20074;-74
2021/03/11 07:52:11;;;;;;;61.38;12.77;;;;;;;;;;4986091;28;20034;-67
2021/03/11 07:54:37;;;;;;;65.47;13.02;;;;;;;;;;4989616;28;20108;-69
2021/03/11 07:57:03;;;;;;;55.60;10.77;;;;;;;;;;4990917;28;20088;-73
2021/03/11 07:59:30;;;;;;;65.00;12.18;;;;;;;;;;4986590;28;20046;-68
2021/03/11 08:01:57;;;;;;;45.53;7.88;;;;;;;;;;4978267;28;20034;-69
2021/03/11 08:04:24;;;;;;;62.65;13.30;;;;;;;;;;4995450;28;20031;-72
2021/03/11 08:06:51;;;;;;;55.38;11.10;;;;;;;;;;4989610;28;20066;-71
2021/03/11 08:09:34;;;;;;;37.65;7.85;;;;;;;;;;4987323;28;20035;-74
2021/03/11 08:12:20;;;;;;;56.78;10.70;;;;;;;;;;4984310;28;20273;-70
2021/03/11 08:14:46;;;;;;;56.95;8.82;;;;;;;;;;4978757;28;20165;-71
2021/03/11 08:17:30;;;;;;;50.45;9.68;;;;;;;;;;4984316;28;20022;-72
2021/03/11 08:19:56;;;;;;;57.97;11.35;;;;;;;;;;4981704;28;20488;-68
2021/03/11 08:22:41;;;;;;;58.97;9.68;;;;;;;;;;4982698;28;20019;-68
2021/03/11 08:25:07;;;;;;;74.85;9.98;;;;;;;;;;4986073;28;20037;-71
2021/03/11 08:27:33;;;;;;;52.03;12.18;;;;;;;;;;4986907;28;20037;-70
2021/03/11 08:29:59;;;;;;;49.92;12.32;;;;;;;;;;4980983;28;20035;-70
2021/03/11 08:32:44;;;;;;;55.50;11.43;;;;;;;;;;4982559;28;20030;-70
2021/03/11 08:35:30;;;;;;;54.63;10.05;;;;;;;;;;4984498;28;20054;-70
2021/03/11 08:37:57;;;;;;;57.30;12.18;;;;;;;;;;4982164;28;20041;-72
2021/03/11 08:40:34;;;;;;;47.50;10.45;;;;;;;;;;4977847;28;20035;-71
2021/03/11 08:43:00;;;;;;;47.38;10.00;;;;;;;;;;4978312;28;20436;-68
2021/03/11 08:45:36;;;;;;;60.58;11.63;;;;;;;;;;4983220;28;20093;-70
2021/03/11 08:48:15;;;;;;;59.03;11.68;;;;;;;;;;4980560;28;20034;-72
2021/03/11 08:50:49;;;;;;;58.35;11.00;;;;;;;;;;4986887;28;20033;-76
2021/03/11 08:53:38;;;;;;;48.45;11.00;;;;;;;;;;4981719;28;20121;-74
2021/03/11 08:56:16;;;;;;;54.53;11.65;;;;;;;;;;4974944;28;20039;-70
2021/03/11 08:58:51;;;;;;;47.22;8.80;;;;;;;;;;4985144;28;20121;-80
2021/03/11 09:01:37;;;;;;;55.85;12.65;;;;;;;;;;4982524;28;20033;-65
2021/03/11 09:04:05;;;;;;;66.70;12.77;;;;;;;;;;4980787;28;20498;-66
2021/03/11 09:06:50;;;;;;;54.53;14.45;;;;;;;;;;4981995;28;20122;-67
2021/03/11 09:09:16;;;;;;;53.88;12.95;;;;;;;;;;4995740;28;20062;-71
2021/03/11 09:11:54;;;;;;;51.33;10.60;;;;;;;;;;4991166;28;20022;-68
2021/03/11 09:14:22;;;;;;;68.38;16.38;;;;;;;;;;4992093;28;20492;-67
2021/03/11 09:16:48;;;;;;;56.25;12.25;;;;;;;;;;4987145;28;20551;-67
2021/03/11 09:19:14;;;;;;;77.85;10.88;;;;;;;;;;4988444;28;20089;-66
2021/03/11 09:21:40;;;;;;;51.97;11.13;;;;;;;;;;4981221;28;20023;-67
2021/03/11 09:24:16;;;;;;;55.42;9.32;;;;;;;;;;4982111;28;20185;-67
2021/03/11 09:26:42;;;;;;;64.70;14.10;;;;;;;;;;4986804;28;20254;-69
2021/03/11 09:29:08;;;;;;;66.72;10.88;;;;;;;;;;4986191;28;20392;-67
2021/03/11 09:31:34;;;;;;;46.97;9.90;;;;;;;;;;4986955;28;20480;-67
2021/03/11 09:34:02;;;;;;;56.30;13.27;;;;;;;;;;4985808;28;20038;-64
2021/03/11 09:36:28;;;;;;;52.25;10.88;;;;;;;;;;4987401;28;20093;-74
2021/03/11 09:39:04;;;;;;;57.90;11.07;;;;;;;;;;4985598;28;20520;-66
2021/03/11 09:41:31;;;;;;;66.07;12.55;;;;;;;;;;4982020;28;20026;-66
2021/03/11 09:44:02;;;;;;;44.20;9.85;;;;;;;;;;4990544;28;20038;-65
2021/03/11 09:46:28;;;;;;;64.97;10.32;;;;;;;;;;4989154;28;20026;-66
2021/03/11 09:48:56;;;;;;;65.80;15.00;;;;;;;;;;4984832;28;20384;-70
2021/03/11 09:51:23;;;;;;;54.05;11.27;;;;;;;;;;4990721;28;20113;-64
2021/03/11 09:53:50;;;;;;;59.85;11.00;;;;;;;;;;4984935;28;20038;-69
2021/03/11 09:56:16;;;;;;;73.28;13.23;;;;;;;;;;4982776;28;20018;-67
2021/03/11 09:58:43;;;;;;;44.08;8.77;;;;;;;;;;4987281;28;20065;-66
2021/03/11 10:01:11;;;;;;;56.28;11.32;;;;;;;;;;4980223;28;20093;-69
2021/03/11 10:03:37;;;;;;;68.50;9.60;;;;;;;;;;4988925;28;20027;-69
2021/03/11 10:06:05;;;;;;;62.28;11.05;;;;;;;;;;4984140;28;20604;-66
2021/03/11 10:08:31;;;;;;;55.38;11.55;;;;;;;;;;4984289;28;20214;-67
2021/03/11 10:10:58;;;;;;;73.00;14.80;;;;;;;;;;4987649;28;20129;-61
2021/03/11 10:13:36;;;;;;;38.40;9.32;;;;;;;;;;4984047;28;20022;-62
2021/03/11 10:16:02;;;;;;;53.10;13.35;;;;;;;;;;4981302;28;20110;-65
2021/03/11 10:18:28;;;;;;;49.80;10.60;;;;;;;;;;4986792;28;20077;-70
2021/03/11 10:21:05;;;;;;;56.85;9.57;;;;;;;;;;4991627;28;20042;-73
2021/03/11 10:23:32;;;;;;;49.15;10.55;;;;;;;;;;4989497;28;20027;-67
2021/03/11 10:26:14;;;;;;;50.05;8.73;;;;;;;;;;4983846;28;20041;-67
2021/03/11 10:28:41;;;;;;;58.05;9.18;;;;;;;;;;4982689;28;20036;-69
2021/03/11 10:31:07;;;;;;;57.40;9.05;;;;;;;;;;4987012;28;20014;-65
2021/03/11 10:33:34;;;;;;;41.38;10.07;;;;;;;;;;4985806;28;20620;-68
2021/03/11 10:36:14;;;;;;;42.92;9.15;;;;;;;;;;4984374;28;20514;-73
2021/03/11 10:38:40;;;;;;;61.83;11.55;;;;;;;;;;4985130;28;20015;-63
2021/03/11 10:41:11;;;;;;;53.28;10.70;;;;;;;;;;4986545;28;20046;-67
2021/03/11 10:43:37;;;;;;;68.78;12.77;;;;;;;;;;4991834;28;20514;-65
2021/03/11 10:46:03;;;;;;;55.67;11.10;;;;;;;;;;4986669;28;20320;-69
2021/03/11 10:48:29;;;;;;;51.00;11.35;;;;;;;;;;4987709;28;20033;-71
2021/03/11 10:50:55;;;;;;;51.65;11.57;;;;;;;;;;4988809;28;20034;-69
2021/03/11 10:53:42;;;;;;;62.72;10.00;;;;;;;;;;4986533;28;20026;-71
2021/03/11 10:56:08;;;;;;;61.33;11.05;;;;;;;;;;4986426;28;20182;-67
2021/03/11 10:58:34;;;;;;;60.63;12.35;;;;;;;;;;4983457;28;20102;-66
2021/03/11 11:01:10;;;;;;;61.35;14.48;;;;;;;;;;4981113;28;20030;-69
2021/03/11 11:03:36;;;;;;;36.25;8.65;;;;;;;;;;4989493;28;20046;-75
2021/03/11 11:06:03;;;;;;;56.47;10.98;;;;;;;;;;4981576;28;20109;-71
2021/03/11 11:08:29;;;;;;;54.95;8.63;;;;;;;;;;4980641;28;20043;-69
2021/03/11 11:10:55;;;;;;;54.28;10.43;;;;;;;;;;4981723;28;20018;-67
2021/03/11 11:13:21;;;;;;;53.08;12.80;;;;;;;;;;4990168;28;20038;-69
2021/03/11 11:15:47;;;;;;;50.25;9.45;;;;;;;;;;4984954;28;20030;-64
2021/03/11 11:18:13;;;;;;;33.22;5.95;;;;;;;;;;4989410;28;20022;-72
2021/03/11 11:20:39;;;;;;;57.83;11.77;;;;;;;;;;4984714;28;20070;-72
2021/03/11 11:23:05;;;;;;;59.15;10.93;;;;;;;;;;4990146;28;20033;-65
2021/03/11 11:25:32;;;;;;;46.33;9.45;;;;;;;;;;4987253;28;20030;-70
2021/03/11 11:27:58;;;;;;;55.30;9.60;;;;;;;;;;4990075;28;20026;-67
2021/03/11 11:30:24;;;;;;;53.53;9.15;;;;;;;;;;4985734;28;20041;-67
2021/03/11 11:32:52;;;;;;;39.42;7.78;;;;;;;;;;4988408;28;20034;-70
2021/03/11 11:35:21;;;;;;;54.42;10.52;;;;;;;;;;4985300;28;20041;-65
2021/03/11 11:37:47;;;;;;;46.33;9.10;;;;;;;;;;4987155;28;20113;-66
2021/03/11 11:40:13;;;;;;;47.00;7.05;;;;;;;;;;4983388;28;20057;-72
2021/03/11 11:42:39;;;;;;;49.63;9.20;;;;;;;;;;4994746;28;20030;-66
2021/03/11 11:45:06;;;;;;;58.92;9.48;;;;;;;;;;4988964;28;20057;-73
2021/03/11 11:47:32;;;;;;;37.90;7.97;;;;;;;;;;4987414;28;20033;-65
2021/03/11 11:49:58;;;;;;;50.53;10.48;;;;;;;;;;4981508;28;20550;-66
2021/03/11 11:52:24;;;;;;;52.03;10.57;;;;;;;;;;4989012;28;20041;-70
2021/03/11 11:54:50;;;;;;;46.72;9.07;;;;;;;;;;4984729;28;20034;-64
2021/03/11 11:57:16;;;;;;;48.72;11.82;;;;;;;;;;4978335;28;20480;-65
2021/03/11 11:59:42;;;;;;;46.45;9.30;;;;;;;;;;4975231;28;20096;-69
2021/03/11 12:02:09;;;;;;;45.42;7.30;;;;;;;;;;4976513;28;20027;-66
2021/03/11 12:04:35;;;;;;;49.55;8.02;;;;;;;;;;4980104;28;20565;-67
2021/03/11 12:07:02;;;;;;;50.65;8.00;;;;;;;;;;4979446;28;20129;-64
2021/03/11 12:09:28;;;;;;;48.78;11.88;;;;;;;;;;4981080;28;20037;-68
2021/03/11 12:11:54;;;;;;;44.38;8.18;;;;;;;;;;4979070;28;20503;-70
2021/03/11 12:14:20;;;;;;;59.17;10.50;;;;;;;;;;4975878;28;20065;-73
2021/03/11 12:16:46;;;;;;;46.88;7.03;;;;;;;;;;4976556;28;20435;-69
2021/03/11 12:19:13;;;;;;;55.65;9.07;;;;;;;;;;4974983;28;20037;-67
2021/03/11 12:21:39;;;;;;;34.22;7.25;;;;;;;;;;4974580;28;20491;-74
2021/03/11 12:24:05;;;;;;;41.75;7.15;;;;;;;;;;4976918;28;20460;-69
2021/03/11 12:26:31;;;;;;;41.10;8.43;;;;;;;;;;4974234;28;20026;-69
2021/03/11 12:29:00;;;;;;;40.78;7.10;;;;;;;;;;4972691;28;20038;-71
2021/03/11 12:31:27;;;;;;;33.42;7.20;;;;;;;;;;4974155;28;20368;-70
2021/03/11 12:33:53;;;;;;;37.33;8.02;;;;;;;;;;4977436;28;20532;-66
2021/03/11 12:36:19;;;;;;;47.13;10.18;;;;;;;;;;4975852;28;20118;-69
2021/03/11 12:38:46;;;;;;;48.67;8.43;;;;;;;;;;4972688;28;20206;-67
2021/03/11 12:41:12;;;;;;;44.33;7.40;;;;;;;;;;4989686;28;20026;-68
2021/03/11 12:43:39;;;;;;;47.03;10.07;;;;;;;;;;4976045;28;20034;-77
2021/03/11 12:46:06;;;;;;;41.75;9.02;;;;;;;;;;4974403;28;20030;-71
2021/03/11 12:48:32;;;;;;;40.90;8.48;;;;;;;;;;4979016;28;20042;-70
2021/03/11 12:50:58;;;;;;;24.95;4.57;;;;;;;;;;4978011;28;20515;-70
2021/03/11 12:53:24;;;;;;;53.20;10.20;;;;;;;;;;4981990;28;21001;-65
2021/03/11 12:55:50;;;;;;;31.10;7.20;;;;;;;;;;4980684;28;20034;-66
2021/03/11 12:58:16;;;;;;;45.70;7.72;;;;;;;;;;4977272;28;20041;-65
2021/03/11 13:00:42;;;;;;;34.67;6.57;;;;;;;;;;4975665;28;20416;-68
2021/03/11 13:03:08;;;;;;;28.15;6.97;;;;;;;;;;4981065;28;20057;-68
2021/03/11 13:05:35;;;;;;;39.20;6.43;;;;;;;;;;4976732;28;20040;-66
2021/03/11 13:08:02;;;;;;;42.28;8.48;;;;;;;;;;4979327;28;20045;-68
2021/03/11 13:10:28;;;;;;;43.60;9.75;;;;;;;;;;4974779;28;20043;-66
2021/03/11 13:12:54;;;;;;;30.38;6.53;;;;;;;;;;4979847;28;20038;-68
2021/03/11 13:15:22;;;;;;;27.02;6.10;;;;;;;;;;4979829;28;20034;-69
2021/03/11 13:17:48;;;;;;;25.30;6.35;;;;;;;;;;4978065;28;20534;-69
2021/03/11 13:20:16;;;;;;;41.33;5.97;;;;;;;;;;4978432;28;20035;-71
2021/03/11 13:22:42;;;;;;;39.80;6.70;;;;;;;;;;4981393;28;20026;-69
2021/03/11 13:25:09;;;;;;;51.97;8.27;;;;;;;;;;4989457;28;20039;-71
2021/03/11 13:27:35;;;;;;;37.03;5.78;;;;;;;;;;4988332;28;20030;-70
2021/03/11 13:30:01;;;;;;;40.47;7.82;;;;;;;;;;4987076;28;20038;-68
2021/03/11 13:32:27;;;;;;;42.13;7.63;;;;;;;;;;4985278;28;20034;-68
2021/03/11 13:34:54;;;;;;;31.27;6.80;;;;;;;;;;4980697;28;20034;-70
2021/03/11 13:37:21;;;;;;;29.15;7.43;;;;;;;;;;4985709;28;20106;-69
2021/03/11 13:39:47;;;;;;;52.78;8.13;;;;;;;;;;4988866;28;20495;-71
2021/03/11 13:42:13;;;;;;;36.88;5.40;;;;;;;;;;4980070;28;20019;-66
2021/03/11 13:44:39;;;;;;;34.33;6.10;;;;;;;;;;4984092;28;20042;-70
2021/03/11 13:47:05;;;;;;;35.72;6.38;;;;;;;;;;4986624;28;20030;-70
2021/03/11 13:49:31;;;;;;;32.97;5.20;;;;;;;;;;4983458;28;20131;-68
2021/03/11 13:51:57;;;;;;;35.78;5.82;;;;;;;;;;4987044;28;20045;-73
2021/03/11 13:54:24;;;;;;;44.00;6.75;;;;;;;;;;4985907;28;21293;-73
2021/03/11 13:56:51;;;;;;;43.92;7.40;;;;;;;;;;4984234;28;20069;-75
2021/03/11 13:59:17;;;;;;;60.50;9.40;;;;;;;;;;4969025;28;20038;-72
2021/03/11 14:01:43;;;;;;;52.67;8.68;;;;;;;;;;4982479;28;20049;-64
2021/03/11 14:04:09;;;;;;;49.03;8.63;;;;;;;;;;4983297;28;20034;-65
2021/03/11 14:06:35;;;;;;;46.75;8.65;;;;;;;;;;4986974;28;20029;-68
2021/03/11 14:09:01;;;;;;;50.78;8.50;;;;;;;;;;4984920;28;20049;-72
2021/03/11 14:11:27;;;;;;;35.50;4.60;;;;;;;;;;4988349;28;20497;-68
2021/03/11 14:13:54;;;;;;;40.22;7.93;;;;;;;;;;4985709;28;20041;-69
2021/03/11 14:16:20;;;;;;;43.63;6.93;;;;;;;;;;4986459;28;20018;-68
2021/03/11 14:18:46;;;;;;;51.97;6.60;;;;;;;;;;4979084;28;20294;-66
2021/03/11 14:21:13;;;;;;;46.47;8.98;;;;;;;;;;4987272;28;20400;-67
2021/03/11 14:23:39;;;;;;;45.05;9.77;;;;;;;;;;4988462;28;20566;-67
2021/03/11 14:26:05;;;;;;;31.25;6.28;;;;;;;;;;4987575;28;20446;-70
2021/03/11 14:28:31;;;;;;;42.55;7.07;;;;;;;;;;4979201;28;20053;-71